Rbd Italia — ICQC — position and weather

sailwx.info

Track history (hours):
 
Tides and Currents Weather Stations Pressure Air Temp Water Temp Dewpoint Dewpoint Depression Visibility Wind Speed Wind Dir Waves Ship Positions

Rbd Italia

Last reported at 2014-Oct-06 22:28 UTC. Time now 2014-Nov-01 01:56 UTC.
Position N 01°14' E 103°27'.
Warning: this ship's position is 25 days out of date.

Length 229 m; draft 13.8 m.

Type: Cargo ship. MMSI: 247303200.

Date/timePositionNaut miles runAvg speedWind from/ knotsBaromVisibWave heightAir tempDewpointWater temp
2014-Oct-06 22:28N 01°14' E 103°27'1111.7
2014-Oct-06 21:33N 01°12' E 103°37'10 9.5
2014-Oct-06 20:32N 01°10' E 103°47'9 9.5
2014-Oct-06 19:33N 01°14' E 103°55'4 4.2
2014-Oct-06 18:30N 01°17' E 103°58'0 0.0
2014-Oct-06 17:30N 01°17' E 103°58'0 0.0
2014-Oct-06 16:27N 01°17' E 103°58'0 0.1
2014-Oct-06 15:27N 01°17' E 103°58'0 0.2
2014-Oct-06 14:33N 01°17' E 103°58'0 0.0
2014-Oct-06 13:33N 01°17' E 103°58'0 0.0
2014-Oct-06 12:33N 01°17' E 103°58'0 0.0
2014-Oct-06 11:27N 01°17' E 103°58'0 0.0
2014-Oct-06 10:27N 01°17' E 103°58'0 0.1
2014-Oct-06 09:33N 01°17' E 103°58'0 0.2
2014-Oct-06 08:33N 01°17' E 103°58'0 0.1
2014-Oct-06 07:33N 01°17' E 103°58'3 2.9
2014-Oct-06 06:34N 01°16' E 104°01'  
2014-Oct-03 17:31S 04°26' E 111°20'1111.4
2014-Oct-03 16:31S 04°28' E 111°31'1111.4
2014-Oct-03 15:33S 04°30' E 111°42'1111.3
2014-Oct-03 14:33S 04°33' E 111°53'  
Track history (hours):
 
Tides and Currents Weather Stations Pressure Air Temp Water Temp Dewpoint Dewpoint Depression Visibility Wind Speed Wind Dir Waves Ship Positions

Rbd Italia

Last reported at 2014-Oct-06 22:28 UTC. Time now 2014-Nov-01 01:56 UTC.
Position N 01°14' E 103°27'.
Warning: this ship's position is 25 days out of date.

Length 229 m; draft 13.8 m.

Type: Cargo ship. MMSI: 247303200.

Date/timePositionNaut miles runAvg speedWind from/ knotsBaromVisibWave heightAir tempDewpointWater temp
2014-Oct-06 22:28N 01°14' E 103°27'1111.7
2014-Oct-06 21:33N 01°12' E 103°37'10 9.5
2014-Oct-06 20:32N 01°10' E 103°47'9 9.5
2014-Oct-06 19:33N 01°14' E 103°55'4 4.2
2014-Oct-06 18:30N 01°17' E 103°58'0 0.0
2014-Oct-06 17:30N 01°17' E 103°58'0 0.0
2014-Oct-06 16:27N 01°17' E 103°58'0 0.1
2014-Oct-06 15:27N 01°17' E 103°58'0 0.2
2014-Oct-06 14:33N 01°17' E 103°58'0 0.0
2014-Oct-06 13:33N 01°17' E 103°58'0 0.0
2014-Oct-06 12:33N 01°17' E 103°58'0 0.0
2014-Oct-06 11:27N 01°17' E 103°58'0 0.0
2014-Oct-06 10:27N 01°17' E 103°58'0 0.1
2014-Oct-06 09:33N 01°17' E 103°58'0 0.2
2014-Oct-06 08:33N 01°17' E 103°58'0 0.1
2014-Oct-06 07:33N 01°17' E 103°58'3 2.9
2014-Oct-06 06:34N 01°16' E 104°01'  
2014-Oct-03 17:31S 04°26' E 111°20'1111.4
2014-Oct-03 16:31S 04°28' E 111°31'1111.4
2014-Oct-03 15:33S 04°30' E 111°42'1111.3
2014-Oct-03 14:33S 04°33' E 111°53'  

Dump ship's entire track history